sensor_id;sensor_type;location;lat;lon;timestamp;temperature;humidity
32907;DHT22;19259;51.590;5.320;2022-12-18T00:01:32;-4.40;99.90
32907;DHT22;19259;51.590;5.320;2022-12-18T00:04:00;-4.40;99.90
32907;DHT22;19259;51.590;5.320;2022-12-18T00:06:29;-4.50;99.90
32907;DHT22;19259;51.590;5.320;2022-12-18T00:08:58;-4.60;99.90
32907;DHT22;19259;51.590;5.320;2022-12-18T00:11:28;-4.60;99.90
32907;DHT22;19259;51.590;5.320;2022-12-18T00:13:57;-4.60;99.90
32907;DHT22;19259;51.590;5.320;2022-12-18T00:16:27;-4.70;99.90
32907;DHT22;19259;51.590;5.320;2022-12-18T00:18:56;-4.60;99.90
32907;DHT22;19259;51.590;5.320;2022-12-18T00:21:24;-4.60;99.90
32907;DHT22;19259;51.590;5.320;2022-12-18T00:23:52;-4.60;99.90
32907;DHT22;19259;51.590;5.320;2022-12-18T00:26:28;-4.70;99.90
32907;DHT22;19259;51.590;5.320;2022-12-18T00:29:03;-4.70;99.90
32907;DHT22;19259;51.590;5.320;2022-12-18T00:31:30;-4.70;99.90
32907;DHT22;19259;51.590;5.320;2022-12-18T00:33:58;-4.80;99.90
32907;DHT22;19259;51.590;5.320;2022-12-18T00:36:30;-4.80;99.90
32907;DHT22;19259;51.590;5.320;2022-12-18T00:39:03;-4.80;99.90
32907;DHT22;19259;51.590;5.320;2022-12-18T00:41:29;-4.90;99.90
32907;DHT22;19259;51.590;5.320;2022-12-18T00:44:16;-4.90;99.90
32907;DHT22;19259;51.590;5.320;2022-12-18T00:46:45;-4.90;99.90
32907;DHT22;19259;51.590;5.320;2022-12-18T00:49:14;-5.00;99.90
32907;DHT22;19259;51.590;5.320;2022-12-18T00:51:42;-4.90;99.90
32907;DHT22;19259;51.590;5.320;2022-12-18T00:54:10;-4.90;99.90
32907;DHT22;19259;51.590;5.320;2022-12-18T00:56:39;-4.90;99.90
32907;DHT22;19259;51.590;5.320;2022-12-18T00:59:06;-5.00;99.90
32907;DHT22;19259;51.590;5.320;2022-12-18T01:01:34;-5.00;99.90
32907;DHT22;19259;51.590;5.320;2022-12-18T01:04:03;-5.10;99.90
32907;DHT22;19259;51.590;5.320;2022-12-18T01:06:30;-5.10;99.90
32907;DHT22;19259;51.590;5.320;2022-12-18T01:08:58;-5.10;99.90
32907;DHT22;19259;51.590;5.320;2022-12-18T01:11:26;-5.10;99.90
32907;DHT22;19259;51.590;5.320;2022-12-18T01:13:54;-5.20;99.90
32907;DHT22;19259;51.590;5.320;2022-12-18T01:16:22;-5.20;99.90
32907;DHT22;19259;51.590;5.320;2022-12-18T01:18:54;-5.20;99.90
32907;DHT22;19259;51.590;5.320;2022-12-18T01:21:22;-5.20;99.90
32907;DHT22;19259;51.590;5.320;2022-12-18T01:23:55;-5.20;99.90
32907;DHT22;19259;51.590;5.320;2022-12-18T01:26:24;-5.10;99.90
32907;DHT22;19259;51.590;5.320;2022-12-18T01:28:54;-5.10;99.90
32907;DHT22;19259;51.590;5.320;2022-12-18T01:31:27;-5.20;99.90
32907;DHT22;19259;51.590;5.320;2022-12-18T01:33:56;-5.20;99.90
32907;DHT22;19259;51.590;5.320;2022-12-18T01:36:29;-5.20;99.90
32907;DHT22;19259;51.590;5.320;2022-12-18T01:38:59;-5.20;99.90
32907;DHT22;19259;51.590;5.320;2022-12-18T01:41:29;-5.20;99.90
32907;DHT22;19259;51.590;5.320;2022-12-18T01:44:51;-5.20;99.90
32907;DHT22;19259;51.590;5.320;2022-12-18T01:47:20;-5.20;99.90
32907;DHT22;19259;51.590;5.320;2022-12-18T01:49:48;-5.20;99.90
32907;DHT22;19259;51.590;5.320;2022-12-18T01:52:17;-5.20;99.90
32907;DHT22;19259;51.590;5.320;2022-12-18T01:54:47;-5.20;99.90
32907;DHT22;19259;51.590;5.320;2022-12-18T01:57:16;-5.30;99.90
32907;DHT22;19259;51.590;5.320;2022-12-18T01:59:45;-5.40;99.90
32907;DHT22;19259;51.590;5.320;2022-12-18T02:02:15;-5.40;99.90
32907;DHT22;19259;51.590;5.320;2022-12-18T02:04:46;-5.40;99.90
32907;DHT22;19259;51.590;5.320;2022-12-18T02:12:56;-5.50;99.90
32907;DHT22;19259;51.590;5.320;2022-12-18T02:18:18;-5.50;99.90
32907;DHT22;19259;51.590;5.320;2022-12-18T02:20:54;-5.50;99.90
32907;DHT22;19259;51.590;5.320;2022-12-18T02:23:39;-5.50;99.90
32907;DHT22;19259;51.590;5.320;2022-12-18T02:26:29;-5.50;99.90
32907;DHT22;19259;51.590;5.320;2022-12-18T02:29:06;-5.50;99.90
32907;DHT22;19259;51.590;5.320;2022-12-18T02:31:35;-5.50;99.90
32907;DHT22;19259;51.590;5.320;2022-12-18T02:34:09;-5.50;99.90
32907;DHT22;19259;51.590;5.320;2022-12-18T02:36:34;-5.60;99.90
32907;DHT22;19259;51.590;5.320;2022-12-18T02:39:09;-5.50;99.90
32907;DHT22;19259;51.590;5.320;2022-12-18T02:41:37;-5.50;99.90
32907;DHT22;19259;51.590;5.320;2022-12-18T02:44:11;-5.50;99.90
32907;DHT22;19259;51.590;5.320;2022-12-18T02:46:49;-5.50;99.90
32907;DHT22;19259;51.590;5.320;2022-12-18T02:57:53;-5.60;99.90
32907;DHT22;19259;51.590;5.320;2022-12-18T03:00:21;-5.50;99.90
32907;DHT22;19259;51.590;5.320;2022-12-18T03:02:58;-5.50;99.90
32907;DHT22;19259;51.590;5.320;2022-12-18T03:05:37;-5.50;99.90
32907;DHT22;19259;51.590;5.320;2022-12-18T03:08:13;-5.60;99.90
32907;DHT22;19259;51.590;5.320;2022-12-18T03:11:02;-5.60;99.90
32907;DHT22;19259;51.590;5.320;2022-12-18T03:13:33;-5.60;99.90
32907;DHT22;19259;51.590;5.320;2022-12-18T03:16:02;-5.60;99.90
32907;DHT22;19259;51.590;5.320;2022-12-18T03:18:40;-5.60;99.90
32907;DHT22;19259;51.590;5.320;2022-12-18T03:21:08;-5.60;99.90
32907;DHT22;19259;51.590;5.320;2022-12-18T03:23:40;-5.60;99.90
32907;DHT22;19259;51.590;5.320;2022-12-18T03:26:10;-5.60;99.90
32907;DHT22;19259;51.590;5.320;2022-12-18T03:28:43;-5.70;99.90
32907;DHT22;19259;51.590;5.320;2022-12-18T03:31:10;-5.70;99.90
32907;DHT22;19259;51.590;5.320;2022-12-18T03:33:47;-5.70;99.90
32907;DHT22;19259;51.590;5.320;2022-12-18T03:36:15;-5.70;99.90
32907;DHT22;19259;51.590;5.320;2022-12-18T03:38:42;-5.70;99.90
32907;DHT22;19259;51.590;5.320;2022-12-18T03:41:31;-5.80;99.90
32907;DHT22;19259;51.590;5.320;2022-12-18T03:49:58;-5.80;99.90
32907;DHT22;19259;51.590;5.320;2022-12-18T03:52:36;-5.80;99.90
32907;DHT22;19259;51.590;5.320;2022-12-18T03:55:00;-5.90;99.90
32907;DHT22;19259;51.590;5.320;2022-12-18T03:57:30;-5.90;99.90
32907;DHT22;19259;51.590;5.320;2022-12-18T04:00:10;-5.90;99.90
32907;DHT22;19259;51.590;5.320;2022-12-18T04:02:41;-5.90;99.90
32907;DHT22;19259;51.590;5.320;2022-12-18T04:05:11;-5.90;99.90
32907;DHT22;19259;51.590;5.320;2022-12-18T04:07:40;-5.90;99.90
32907;DHT22;19259;51.590;5.320;2022-12-18T04:10:09;-5.90;99.90
32907;DHT22;19259;51.590;5.320;2022-12-18T04:12:37;-5.90;99.90
32907;DHT22;19259;51.590;5.320;2022-12-18T04:15:06;-5.90;99.90
32907;DHT22;19259;51.590;5.320;2022-12-18T04:17:34;-5.90;99.90
32907;DHT22;19259;51.590;5.320;2022-12-18T04:20:02;-5.90;99.90
32907;DHT22;19259;51.590;5.320;2022-12-18T04:22:30;-5.90;99.90
32907;DHT22;19259;51.590;5.320;2022-12-18T04:24:57;-5.90;99.90
32907;DHT22;19259;51.590;5.320;2022-12-18T04:27:25;-6.00;99.90
32907;DHT22;19259;51.590;5.320;2022-12-18T04:29:52;-6.00;99.90
32907;DHT22;19259;51.590;5.320;2022-12-18T04:32:20;-6.00;99.90
32907;DHT22;19259;51.590;5.320;2022-12-18T04:34:47;-6.00;99.90
32907;DHT22;19259;51.590;5.320;2022-12-18T04:37:15;-6.00;99.90
32907;DHT22;19259;51.590;5.320;2022-12-18T04:39:44;-6.00;99.90
32907;DHT22;19259;51.590;5.320;2022-12-18T04:42:12;-6.10;99.90
32907;DHT22;19259;51.590;5.320;2022-12-18T04:44:39;-6.00;99.90
32907;DHT22;19259;51.590;5.320;2022-12-18T04:47:09;-6.00;99.90
32907;DHT22;19259;51.590;5.320;2022-12-18T04:49:37;-6.10;99.90
32907;DHT22;19259;51.590;5.320;2022-12-18T04:52:04;-6.10;99.90
32907;DHT22;19259;51.590;5.320;2022-12-18T04:54:34;-6.10;99.90
32907;DHT22;19259;51.590;5.320;2022-12-18T04:57:01;-6.20;99.90
32907;DHT22;19259;51.590;5.320;2022-12-18T04:59:29;-6.30;99.90
32907;DHT22;19259;51.590;5.320;2022-12-18T05:01:56;-6.30;99.90
32907;DHT22;19259;51.590;5.320;2022-12-18T05:04:24;-6.20;99.90
32907;DHT22;19259;51.590;5.320;2022-12-18T05:06:51;-6.30;99.90
32907;DHT22;19259;51.590;5.320;2022-12-18T05:09:19;-6.20;99.90
32907;DHT22;19259;51.590;5.320;2022-12-18T05:11:46;-6.20;99.90
32907;DHT22;19259;51.590;5.320;2022-12-18T05:14:14;-6.20;99.90
32907;DHT22;19259;51.590;5.320;2022-12-18T05:16:42;-6.10;99.90
32907;DHT22;19259;51.590;5.320;2022-12-18T05:19:09;-6.10;99.90
32907;DHT22;19259;51.590;5.320;2022-12-18T05:21:37;-6.10;99.90
32907;DHT22;19259;51.590;5.320;2022-12-18T05:24:05;-6.10;99.90
32907;DHT22;19259;51.590;5.320;2022-12-18T05:26:33;-6.10;99.90
32907;DHT22;19259;51.590;5.320;2022-12-18T05:29:00;-6.10;99.90
32907;DHT22;19259;51.590;5.320;2022-12-18T05:31:28;-6.10;99.90
32907;DHT22;19259;51.590;5.320;2022-12-18T05:33:55;-6.20;99.90
32907;DHT22;19259;51.590;5.320;2022-12-18T05:36:23;-6.20;99.90
32907;DHT22;19259;51.590;5.320;2022-12-18T05:38:50;-6.20;99.90
32907;DHT22;19259;51.590;5.320;2022-12-18T05:41:18;-6.10;99.90
32907;DHT22;19259;51.590;5.320;2022-12-18T05:43:50;-6.10;99.90
32907;DHT22;19259;51.590;5.320;2022-12-18T05:46:19;-6.10;99.90
32907;DHT22;19259;51.590;5.320;2022-12-18T05:48:50;-6.10;99.90
32907;DHT22;19259;51.590;5.320;2022-12-18T05:51:19;-6.10;99.90
32907;DHT22;19259;51.590;5.320;2022-12-18T05:53:48;-6.10;99.90
32907;DHT22;19259;51.590;5.320;2022-12-18T05:56:18;-6.10;99.90
32907;DHT22;19259;51.590;5.320;2022-12-18T05:58:46;-6.10;99.90
32907;DHT22;19259;51.590;5.320;2022-12-18T06:01:16;-6.10;99.90
32907;DHT22;19259;51.590;5.320;2022-12-18T06:03:45;-6.10;99.90
32907;DHT22;19259;51.590;5.320;2022-12-18T06:08:48;-6.10;99.90
32907;DHT22;19259;51.590;5.320;2022-12-18T06:11:22;-6.20;99.90
32907;DHT22;19259;51.590;5.320;2022-12-18T06:13:51;-6.20;99.90
32907;DHT22;19259;51.590;5.320;2022-12-18T06:16:19;-6.20;99.90
32907;DHT22;19259;51.590;5.320;2022-12-18T06:18:47;-6.20;99.90
32907;DHT22;19259;51.590;5.320;2022-12-18T06:21:14;-6.30;99.90
32907;DHT22;19259;51.590;5.320;2022-12-18T06:23:42;-6.30;99.90
32907;DHT22;19259;51.590;5.320;2022-12-18T06:26:13;-6.30;99.90
32907;DHT22;19259;51.590;5.320;2022-12-18T06:28:41;-6.40;99.90
32907;DHT22;19259;51.590;5.320;2022-12-18T06:31:09;-6.50;99.90
32907;DHT22;19259;51.590;5.320;2022-12-18T06:33:37;-6.50;99.90
32907;DHT22;19259;51.590;5.320;2022-12-18T06:36:07;-6.50;99.90
32907;DHT22;19259;51.590;5.320;2022-12-18T06:38:38;-6.50;99.90
32907;DHT22;19259;51.590;5.320;2022-12-18T06:41:13;-6.50;99.90
32907;DHT22;19259;51.590;5.320;2022-12-18T06:43:41;-6.50;99.90
32907;DHT22;19259;51.590;5.320;2022-12-18T06:46:09;-6.50;99.90
32907;DHT22;19259;51.590;5.320;2022-12-18T06:48:36;-6.50;99.90
32907;DHT22;19259;51.590;5.320;2022-12-18T06:51:04;-6.40;99.90
32907;DHT22;19259;51.590;5.320;2022-12-18T06:53:33;-6.50;99.90
32907;DHT22;19259;51.590;5.320;2022-12-18T06:56:03;-6.40;99.90
32907;DHT22;19259;51.590;5.320;2022-12-18T06:58:30;-6.40;99.90
32907;DHT22;19259;51.590;5.320;2022-12-18T07:01:03;-6.50;99.90
32907;DHT22;19259;51.590;5.320;2022-12-18T07:03:30;-6.40;99.90
32907;DHT22;19259;51.590;5.320;2022-12-18T07:05:58;-6.50;99.90
32907;DHT22;19259;51.590;5.320;2022-12-18T07:08:26;-6.60;99.90
32907;DHT22;19259;51.590;5.320;2022-12-18T07:10:53;-6.50;99.90
32907;DHT22;19259;51.590;5.320;2022-12-18T07:13:21;-6.50;99.90
32907;DHT22;19259;51.590;5.320;2022-12-18T07:15:48;-6.50;99.90
32907;DHT22;19259;51.590;5.320;2022-12-18T07:18:18;-6.50;99.90
32907;DHT22;19259;51.590;5.320;2022-12-18T07:20:45;-6.50;99.90
32907;DHT22;19259;51.590;5.320;2022-12-18T07:23:13;-6.50;99.90
32907;DHT22;19259;51.590;5.320;2022-12-18T07:25:40;-6.50;99.90
32907;DHT22;19259;51.590;5.320;2022-12-18T07:28:08;-6.50;99.90
32907;DHT22;19259;51.590;5.320;2022-12-18T07:30:37;-6.40;99.90
32907;DHT22;19259;51.590;5.320;2022-12-18T07:33:05;-6.40;99.90
32907;DHT22;19259;51.590;5.320;2022-12-18T07:35:33;-6.40;99.90
32907;DHT22;19259;51.590;5.320;2022-12-18T07:38:02;-6.30;99.90
32907;DHT22;19259;51.590;5.320;2022-12-18T07:40:30;-6.30;99.90
32907;DHT22;19259;51.590;5.320;2022-12-18T07:42:57;-6.20;99.90
32907;DHT22;19259;51.590;5.320;2022-12-18T07:45:27;-6.20;99.90
32907;DHT22;19259;51.590;5.320;2022-12-18T07:47:56;-6.10;99.90
32907;DHT22;19259;51.590;5.320;2022-12-18T07:50:23;-6.10;99.90
32907;DHT22;19259;51.590;5.320;2022-12-18T07:52:51;-6.00;99.90
32907;DHT22;19259;51.590;5.320;2022-12-18T07:55:18;-6.00;99.90
32907;DHT22;19259;51.590;5.320;2022-12-18T07:57:46;-5.90;99.90
32907;DHT22;19259;51.590;5.320;2022-12-18T08:00:14;-5.90;99.90
32907;DHT22;19259;51.590;5.320;2022-12-18T08:02:42;-5.80;99.90
32907;DHT22;19259;51.590;5.320;2022-12-18T08:05:10;-5.80;99.90
32907;DHT22;19259;51.590;5.320;2022-12-18T08:07:39;-5.70;99.90
32907;DHT22;19259;51.590;5.320;2022-12-18T08:10:07;-5.60;99.90
32907;DHT22;19259;51.590;5.320;2022-12-18T08:12:35;-5.50;99.90
32907;DHT22;19259;51.590;5.320;2022-12-18T08:15:02;-5.60;99.90
32907;DHT22;19259;51.590;5.320;2022-12-18T08:17:30;-5.50;99.90
32907;DHT22;19259;51.590;5.320;2022-12-18T08:19:58;-5.50;99.90
32907;DHT22;19259;51.590;5.320;2022-12-18T08:22:25;-5.50;99.90
32907;DHT22;19259;51.590;5.320;2022-12-18T08:24:53;-5.40;99.90
32907;DHT22;19259;51.590;5.320;2022-12-18T08:27:21;-5.30;99.90
32907;DHT22;19259;51.590;5.320;2022-12-18T08:29:48;-5.30;99.90
32907;DHT22;19259;51.590;5.320;2022-12-18T08:32:16;-5.20;99.90
32907;DHT22;19259;51.590;5.320;2022-12-18T08:34:43;-5.10;99.90
32907;DHT22;19259;51.590;5.320;2022-12-18T08:37:11;-5.10;99.90
32907;DHT22;19259;51.590;5.320;2022-12-18T08:39:38;-5.10;99.90
32907;DHT22;19259;51.590;5.320;2022-12-18T08:42:06;-5.00;99.90
32907;DHT22;19259;51.590;5.320;2022-12-18T08:44:51;-5.10;99.90
32907;DHT22;19259;51.590;5.320;2022-12-18T08:47:19;-5.00;99.90
32907;DHT22;19259;51.590;5.320;2022-12-18T08:49:47;-5.00;99.90
32907;DHT22;19259;51.590;5.320;2022-12-18T08:52:14;-4.90;99.90
32907;DHT22;19259;51.590;5.320;2022-12-18T08:54:42;-4.80;99.90
32907;DHT22;19259;51.590;5.320;2022-12-18T08:57:09;-4.70;99.90
32907;DHT22;19259;51.590;5.320;2022-12-18T08:59:37;-4.60;99.90
32907;DHT22;19259;51.590;5.320;2022-12-18T09:02:05;-4.60;99.90
32907;DHT22;19259;51.590;5.320;2022-12-18T09:04:32;-4.50;99.90
32907;DHT22;19259;51.590;5.320;2022-12-18T09:07:00;-4.50;99.90
32907;DHT22;19259;51.590;5.320;2022-12-18T09:09:28;-4.40;99.90
32907;DHT22;19259;51.590;5.320;2022-12-18T09:11:55;-4.40;99.90
32907;DHT22;19259;51.590;5.320;2022-12-18T09:14:23;-4.30;99.90
32907;DHT22;19259;51.590;5.320;2022-12-18T09:16:50;-4.30;99.90
32907;DHT22;19259;51.590;5.320;2022-12-18T09:19:18;-4.20;99.90
32907;DHT22;19259;51.590;5.320;2022-12-18T09:21:45;-4.20;99.90
32907;DHT22;19259;51.590;5.320;2022-12-18T09:24:14;-4.20;99.90
32907;DHT22;19259;51.590;5.320;2022-12-18T09:26:41;-4.10;99.90
32907;DHT22;19259;51.590;5.320;2022-12-18T09:29:09;-4.10;99.90
32907;DHT22;19259;51.590;5.320;2022-12-18T09:31:37;-4.00;99.90
32907;DHT22;19259;51.590;5.320;2022-12-18T09:34:05;-4.00;99.90
32907;DHT22;19259;51.590;5.320;2022-12-18T09:36:33;-3.90;99.90
32907;DHT22;19259;51.590;5.320;2022-12-18T09:39:00;-3.90;99.90
32907;DHT22;19259;51.590;5.320;2022-12-18T09:41:52;-3.80;99.90
32907;DHT22;19259;51.590;5.320;2022-12-18T09:47:05;-3.60;99.90
32907;DHT22;19259;51.590;5.320;2022-12-18T09:49:37;-3.70;99.90
32907;DHT22;19259;51.590;5.320;2022-12-18T09:52:19;-3.70;99.90
32907;DHT22;19259;51.590;5.320;2022-12-18T09:54:53;-3.60;99.90
32907;DHT22;19259;51.590;5.320;2022-12-18T09:57:20;-3.40;99.90
32907;DHT22;19259;51.590;5.320;2022-12-18T09:59:56;-3.30;99.90
32907;DHT22;19259;51.590;5.320;2022-12-18T10:02:23;-3.30;99.90
32907;DHT22;19259;51.590;5.320;2022-12-18T10:05:04;-3.30;99.90
32907;DHT22;19259;51.590;5.320;2022-12-18T10:10:46;-3.10;99.90
32907;DHT22;19259;51.590;5.320;2022-12-18T10:13:31;-3.00;99.90
32907;DHT22;19259;51.590;5.320;2022-12-18T10:22:02;-2.70;99.90
32907;DHT22;19259;51.590;5.320;2022-12-18T10:27:18;-2.60;99.90
32907;DHT22;19259;51.590;5.320;2022-12-18T10:29:47;-2.60;99.90
32907;DHT22;19259;51.590;5.320;2022-12-18T10:32:20;-2.60;99.90
32907;DHT22;19259;51.590;5.320;2022-12-18T10:34:48;-2.60;99.90
32907;DHT22;19259;51.590;5.320;2022-12-18T10:37:21;-2.60;99.90
32907;DHT22;19259;51.590;5.320;2022-12-18T10:40:14;-2.50;99.90
32907;DHT22;19259;51.590;5.320;2022-12-18T10:42:38;-2.30;99.90
32907;DHT22;19259;51.590;5.320;2022-12-18T10:45:17;-2.30;99.90
32907;DHT22;19259;51.590;5.320;2022-12-18T10:47:49;-2.20;99.90
32907;DHT22;19259;51.590;5.320;2022-12-18T10:50:29;-2.20;99.90
32907;DHT22;19259;51.590;5.320;2022-12-18T10:53:00;-2.20;99.90
32907;DHT22;19259;51.590;5.320;2022-12-18T10:55:37;-2.20;99.90
32907;DHT22;19259;51.590;5.320;2022-12-18T10:58:32;-2.10;99.90
32907;DHT22;19259;51.590;5.320;2022-12-18T11:01:17;-2.10;99.90
32907;DHT22;19259;51.590;5.320;2022-12-18T11:04:08;-2.00;99.90
32907;DHT22;19259;51.590;5.320;2022-12-18T11:06:19;-2.00;99.90
32907;DHT22;19259;51.590;5.320;2022-12-18T11:09:03;-2.00;99.90
32907;DHT22;19259;51.590;5.320;2022-12-18T11:11:32;-1.90;99.90
32907;DHT22;19259;51.590;5.320;2022-12-18T11:14:03;-1.90;99.90
32907;DHT22;19259;51.590;5.320;2022-12-18T11:16:36;-1.90;99.90
32907;DHT22;19259;51.590;5.320;2022-12-18T11:19:35;-2.00;99.90
32907;DHT22;19259;51.590;5.320;2022-12-18T11:24:55;-1.80;99.90
32907;DHT22;19259;51.590;5.320;2022-12-18T11:27:22;-1.70;99.90
32907;DHT22;19259;51.590;5.320;2022-12-18T11:29:50;-1.60;99.90
32907;DHT22;19259;51.590;5.320;2022-12-18T11:32:25;-1.70;99.90
32907;DHT22;19259;51.590;5.320;2022-12-18T11:34:52;-1.60;99.90
32907;DHT22;19259;51.590;5.320;2022-12-18T11:37:20;-1.50;99.90
32907;DHT22;19259;51.590;5.320;2022-12-18T11:39:52;-1.50;99.90
32907;DHT22;19259;51.590;5.320;2022-12-18T11:42:24;-1.50;99.90
32907;DHT22;19259;51.590;5.320;2022-12-18T11:44:58;-1.50;99.90
32907;DHT22;19259;51.590;5.320;2022-12-18T11:50:17;-1.30;99.90
32907;DHT22;19259;51.590;5.320;2022-12-18T11:52:45;-1.30;99.90
32907;DHT22;19259;51.590;5.320;2022-12-18T12:01:05;-1.20;99.90
32907;DHT22;19259;51.590;5.320;2022-12-18T12:03:54;-1.20;99.90
32907;DHT22;19259;51.590;5.320;2022-12-18T12:11:48;-1.20;99.90
32907;DHT22;19259;51.590;5.320;2022-12-18T12:14:29;-1.10;99.90
32907;DHT22;19259;51.590;5.320;2022-12-18T12:23:34;-1.20;99.90
32907;DHT22;19259;51.590;5.320;2022-12-18T12:25:35;-1.10;99.90
32907;DHT22;19259;51.590;5.320;2022-12-18T12:31:50;-1.00;99.90
32907;DHT22;19259;51.590;5.320;2022-12-18T12:33:52;-1.00;99.90
32907;DHT22;19259;51.590;5.320;2022-12-18T12:38:54;-1.00;99.90
32907;DHT22;19259;51.590;5.320;2022-12-18T12:41:28;-0.90;99.90
32907;DHT22;19259;51.590;5.320;2022-12-18T12:44:24;-0.90;99.90
32907;DHT22;19259;51.590;5.320;2022-12-18T12:46:54;-0.90;99.90
32907;DHT22;19259;51.590;5.320;2022-12-18T12:49:24;-0.90;99.90
32907;DHT22;19259;51.590;5.320;2022-12-18T12:54:33;-0.90;99.90
32907;DHT22;19259;51.590;5.320;2022-12-18T12:57:37;-0.90;99.90
32907;DHT22;19259;51.590;5.320;2022-12-18T13:00:13;-0.90;99.90
32907;DHT22;19259;51.590;5.320;2022-12-18T13:05:40;-0.90;99.90
32907;DHT22;19259;51.590;5.320;2022-12-18T13:08:11;-0.90;99.90
32907;DHT22;19259;51.590;5.320;2022-12-18T13:10:41;-0.90;99.90
32907;DHT22;19259;51.590;5.320;2022-12-18T13:13:18;-0.90;99.90
32907;DHT22;19259;51.590;5.320;2022-12-18T13:15:48;-0.80;99.90
32907;DHT22;19259;51.590;5.320;2022-12-18T13:18:26;-0.80;99.90
32907;DHT22;19259;51.590;5.320;2022-12-18T13:20:50;-0.80;99.90
32907;DHT22;19259;51.590;5.320;2022-12-18T13:23:32;-0.90;99.90
32907;DHT22;19259;51.590;5.320;2022-12-18T13:25:57;-0.80;99.90
32907;DHT22;19259;51.590;5.320;2022-12-18T13:36:53;-0.80;99.90
32907;DHT22;19259;51.590;5.320;2022-12-18T13:39:22;-0.80;99.90
32907;DHT22;19259;51.590;5.320;2022-12-18T13:44:33;-0.80;99.90
32907;DHT22;19259;51.590;5.320;2022-12-18T13:47:31;-0.70;99.90
32907;DHT22;19259;51.590;5.320;2022-12-18T13:49:57;-0.70;99.90
32907;DHT22;19259;51.590;5.320;2022-12-18T13:52:33;-0.70;99.90
32907;DHT22;19259;51.590;5.320;2022-12-18T13:55:00;-0.70;99.90
32907;DHT22;19259;51.590;5.320;2022-12-18T13:57:33;-0.70;99.90
32907;DHT22;19259;51.590;5.320;2022-12-18T14:00:24;-0.70;99.90
32907;DHT22;19259;51.590;5.320;2022-12-18T14:02:52;-0.70;99.90
32907;DHT22;19259;51.590;5.320;2022-12-18T14:08:04;-0.70;99.90
32907;DHT22;19259;51.590;5.320;2022-12-18T14:10:29;-0.70;99.90
32907;DHT22;19259;51.590;5.320;2022-12-18T14:12:59;-0.70;99.90
32907;DHT22;19259;51.590;5.320;2022-12-18T14:15:36;-0.70;99.90
32907;DHT22;19259;51.590;5.320;2022-12-18T14:20:48;-0.70;99.90
32907;DHT22;19259;51.590;5.320;2022-12-18T14:23:31;-0.70;99.90
32907;DHT22;19259;51.590;5.320;2022-12-18T14:25:59;-0.70;99.90
32907;DHT22;19259;51.590;5.320;2022-12-18T14:28:27;-0.70;99.90
32907;DHT22;19259;51.590;5.320;2022-12-18T14:30:55;-0.70;99.90
32907;DHT22;19259;51.590;5.320;2022-12-18T14:33:25;-0.70;99.90
32907;DHT22;19259;51.590;5.320;2022-12-18T14:36:00;-0.70;99.90
32907;DHT22;19259;51.590;5.320;2022-12-18T14:41:10;-0.70;99.90
32907;DHT22;19259;51.590;5.320;2022-12-18T14:43:35;-0.70;99.90
32907;DHT22;19259;51.590;5.320;2022-12-18T14:46:05;-0.70;99.90
32907;DHT22;19259;51.590;5.320;2022-12-18T14:48:42;-0.60;99.90
32907;DHT22;19259;51.590;5.320;2022-12-18T14:51:20;-0.70;99.90
32907;DHT22;19259;51.590;5.320;2022-12-18T14:53:49;-0.70;99.90
32907;DHT22;19259;51.590;5.320;2022-12-18T14:56:25;-0.70;99.90
32907;DHT22;19259;51.590;5.320;2022-12-18T14:59:15;-0.70;99.90
32907;DHT22;19259;51.590;5.320;2022-12-18T15:01:58;-0.70;99.90
32907;DHT22;19259;51.590;5.320;2022-12-18T15:04:34;-0.70;99.90
32907;DHT22;19259;51.590;5.320;2022-12-18T15:07:13;-0.70;99.90
32907;DHT22;19259;51.590;5.320;2022-12-18T15:10:00;-0.80;99.90
32907;DHT22;19259;51.590;5.320;2022-12-18T15:12:34;-0.70;99.90
32907;DHT22;19259;51.590;5.320;2022-12-18T15:15:03;-0.80;99.90
32907;DHT22;19259;51.590;5.320;2022-12-18T15:17:31;-0.70;99.90
32907;DHT22;19259;51.590;5.320;2022-12-18T15:20:09;-0.70;99.90
32907;DHT22;19259;51.590;5.320;2022-12-18T15:22:36;-0.70;99.90
32907;DHT22;19259;51.590;5.320;2022-12-18T15:25:20;-0.70;99.90
32907;DHT22;19259;51.590;5.320;2022-12-18T15:27:36;-0.70;99.90
32907;DHT22;19259;51.590;5.320;2022-12-18T15:32:41;-0.70;99.90
32907;DHT22;19259;51.590;5.320;2022-12-18T15:35:19;-0.70;99.90
32907;DHT22;19259;51.590;5.320;2022-12-18T15:37:46;-0.70;99.90
32907;DHT22;19259;51.590;5.320;2022-12-18T15:42:44;-0.70;99.90
32907;DHT22;19259;51.590;5.320;2022-12-18T15:45:29;-0.70;99.90
32907;DHT22;19259;51.590;5.320;2022-12-18T15:47:57;-0.70;99.90
32907;DHT22;19259;51.590;5.320;2022-12-18T15:50:25;-0.70;99.90
32907;DHT22;19259;51.590;5.320;2022-12-18T15:52:54;-0.70;99.90
32907;DHT22;19259;51.590;5.320;2022-12-18T15:55:23;-0.70;99.90
32907;DHT22;19259;51.590;5.320;2022-12-18T15:58:10;-0.70;99.90
32907;DHT22;19259;51.590;5.320;2022-12-18T16:00:39;-0.60;99.90
32907;DHT22;19259;51.590;5.320;2022-12-18T16:03:08;-0.60;99.90
32907;DHT22;19259;51.590;5.320;2022-12-18T16:05:36;-0.60;99.90
32907;DHT22;19259;51.590;5.320;2022-12-18T16:08:04;-0.60;99.90
32907;DHT22;19259;51.590;5.320;2022-12-18T16:10:31;-0.60;99.90
32907;DHT22;19259;51.590;5.320;2022-12-18T16:12:59;-0.60;99.90
32907;DHT22;19259;51.590;5.320;2022-12-18T16:15:26;-0.60;99.90
32907;DHT22;19259;51.590;5.320;2022-12-18T16:17:54;-0.60;99.90
32907;DHT22;19259;51.590;5.320;2022-12-18T16:20:22;-0.60;99.90
32907;DHT22;19259;51.590;5.320;2022-12-18T16:22:50;-0.50;99.90
32907;DHT22;19259;51.590;5.320;2022-12-18T16:25:23;-0.50;99.90
32907;DHT22;19259;51.590;5.320;2022-12-18T16:27:52;-0.50;99.90
32907;DHT22;19259;51.590;5.320;2022-12-18T16:30:24;-0.60;99.90
32907;DHT22;19259;51.590;5.320;2022-12-18T16:32:54;-0.60;99.90
32907;DHT22;19259;51.590;5.320;2022-12-18T16:35:22;-0.50;99.90
32907;DHT22;19259;51.590;5.320;2022-12-18T16:37:50;-0.50;99.90
32907;DHT22;19259;51.590;5.320;2022-12-18T16:40:18;-0.50;99.90
32907;DHT22;19259;51.590;5.320;2022-12-18T16:42:46;-0.40;99.90
32907;DHT22;19259;51.590;5.320;2022-12-18T16:45:16;-0.50;99.90
32907;DHT22;19259;51.590;5.320;2022-12-18T16:47:44;-0.50;99.90
32907;DHT22;19259;51.590;5.320;2022-12-18T16:50:12;-0.50;99.90
32907;DHT22;19259;51.590;5.320;2022-12-18T16:52:40;-0.40;99.90
32907;DHT22;19259;51.590;5.320;2022-12-18T16:55:08;-0.40;99.90
32907;DHT22;19259;51.590;5.320;2022-12-18T16:57:36;-0.40;99.90
32907;DHT22;19259;51.590;5.320;2022-12-18T17:00:04;-0.40;99.90
32907;DHT22;19259;51.590;5.320;2022-12-18T17:02:32;-0.40;99.90
32907;DHT22;19259;51.590;5.320;2022-12-18T17:05:00;-0.40;99.90
32907;DHT22;19259;51.590;5.320;2022-12-18T17:07:28;-0.30;99.90
32907;DHT22;19259;51.590;5.320;2022-12-18T17:09:56;-0.40;99.90
32907;DHT22;19259;51.590;5.320;2022-12-18T17:12:23;-0.30;99.90
32907;DHT22;19259;51.590;5.320;2022-12-18T17:14:52;-0.30;99.90
32907;DHT22;19259;51.590;5.320;2022-12-18T17:17:19;-0.30;99.90
32907;DHT22;19259;51.590;5.320;2022-12-18T17:19:47;-0.30;99.90
32907;DHT22;19259;51.590;5.320;2022-12-18T17:22:15;-0.20;99.90
32907;DHT22;19259;51.590;5.320;2022-12-18T17:24:42;-0.20;99.90
32907;DHT22;19259;51.590;5.320;2022-12-18T17:27:10;-0.20;99.90
32907;DHT22;19259;51.590;5.320;2022-12-18T17:29:37;-0.20;99.90
32907;DHT22;19259;51.590;5.320;2022-12-18T17:32:05;-0.20;99.90